Historyczne dane pomiarowe

Dodano dane terminowe – wersja testowa.

Dane z okresu 1951-2019

Wersja bazy: 1.34 [2019-03-16, lista zmian], aktualizacja planowana na 2019-04-15

Dane meteo z obszaru Polski uzyskane na podstawie danych udostępnionych przez Instytut Meteorologii i Gospodarki Wodnej – Państwowy Instytut Badawczy.

 

Wybierz Datę:    

       

TemperaturaWilgotnośćWiatrCiśnienieOpadyŚniegCzas trwania zjawisk
 Stacja t tx tn tng RH VA  wxwx mslp ppp RRR   cm mm wxwxwxwxwxwxwx
1961-08-14 15.0 21.1 9.7 6.7 79.8- 5.0 0.7---- 0.0------------
1961-08-13 13.6 17.2 11.5 12.5 85.3- 5.3 0.7---- 1.3------------
1961-08-12 16.6 19.4 14.8 12.9 90.0- 8.0 1.3---- 7.0------------
1961-08-11 19.3 24.6 17.0 14.7 93.0- 6.0 0.7---- 11.8------------
1961-08-10 23.6 29.0 17.0 14.7 87.8- 3.7 0.7---- 11.3------------
1961-08-09 20.3 24.7 16.0 13.2 93.3- 7.7 0.0---- 4.6------------
1961-08-08 19.0 23.4 15.6 14.0 89.8- 6.0 0.7---- 0.0------------
1961-08-07 19.2 26.2 17.0 13.6 81.5- 7.0 0.7---- 4.4------------
1961-08-06 26.3 30.8 13.6 8.0 53.3- 2.3 0.3---- 6.2------------
1961-08-05 19.3 25.7 13.1 8.3 79.5- 4.3 0.3---- 0.0------------
1961-08-04 16.1 20.7 5.6 1.5 71.0- 5.7 1.0---- 0.4------------
1961-08-03 14.0 20.1 10.8 7.9 84.8- 4.0 0.7---- 0.0------------
1961-08-02 17.6 27.0 7.5 4.6 80.3- 4.3 0.3---- 0.4------------
1961-08-01 16.2 22.1 11.0 6.2 71.0- 1.7 1.0---- 0.0------------
1961-07-31 14.5 18.9 11.0 10.8 80.8- 7.7 4.3---- 0.1------------
1961-07-30 12.9 15.4 11.1 9.8 82.8- 8.0 3.3---- 4.4------------
1961-07-29 13.5 17.1 12.0 11.3 81.5- 8.0 3.7---- 0.0------------
1961-07-28 17.3 22.1 14.5 13.4 88.3- 8.0 1.7---- 21.6------------
1961-07-27 20.2 25.0 11.4 8.2 70.3- 7.7 3.3---- 0.9------------
1961-07-26 19.0 24.5 6.1 2.9 62.3- 2.0 1.0---- 0.0------------
1961-07-25 13.9 18.1 11.5 9.9 79.8- 7.7 1.0---- 0.0------------
1961-07-24 14.5 18.1 11.0 7.1 68.0- 7.7 1.7---- 0.0------------
1961-07-23 14.9 19.4 11.4 8.1 73.3- 8.0 1.0---- 0.0------------
1961-07-22 15.6 19.2 12.4 11.1 77.5- 8.0 1.7---- 0.0------------
1961-07-21 15.7 18.4 12.1 7.7 73.3- 8.0 3.7---- 1.2------------
1961-07-20 15.0 18.6 9.0 6.1 82.5- 5.0 0.7---- 3.9------------
1961-07-19 14.7 20.0 12.2 9.6 84.5- 6.3 0.3---- 2.0------------
1961-07-18 15.7 19.2 12.0 10.6 70.5- 6.7 2.3---- 4.4------------
1961-07-17 15.0 18.2 10.3 8.0 68.5- 5.3 3.3---- 0.1------------
1961-07-16 18.3 22.8 13.3 12.6 59.5- 0.7 3.3---- 0.0------------
1961-07-15 19.4 24.6 14.6 10.9 74.3- 5.0 1.7---- 18.6------------
1961-07-14 16.5 20.9 13.8 12.8 60.0- 5.3 3.7---- 0.0------------
1961-07-13 19.3 25.3 14.9 11.1 75.3- 2.7 0.3---- 5.9------------
1961-07-12 22.0 28.3 14.5 10.7 69.3- 0.0 0.3---- 0.0------------
1961-07-11 16.3 24.4 4.8 1.5 80.3- 8.0 0.0---- 0.0------------
1961-07-10 14.2 19.5 9.8 4.6 72.0- 6.7 0.0---- 0.1------------
1961-07-09 14.6 17.9 6.4 3.1 77.8- 7.3 0.0---- 11.8------------
1961-07-08 16.9 23.2 4.0 -0.2 58.0- 2.0 0.7---- 0.0------------
1961-07-07 12.8 18.1 9.4 5.9 69.8- 7.0 0.7---- 0.0------------
1961-07-06 13.9 17.0 7.5 3.6 62.8- 6.7 4.7---- 0.0------------
1961-07-05 14.8 18.6 12.7 12.2 55.5- 6.3 4.3---- 0.0------------
1961-07-04 20.7 28.5 17.1 13.2 69.0- 4.0 2.0---- 0.0------------
1961-07-03 24.4 32.5 12.0 8.9 60.3- 2.0 1.0---- 0.0------------
1961-07-02 21.5 30.0 11.0 6.9 67.5- 0.0 0.7---- 0.0------------
1961-07-01 18.9 27.5 8.7 5.1 73.0- 0.0 0.7---- 0.0------------
1961-06-30 17.8 25.0 7.6 3.7 73.3- 0.0 1.3---- 0.0------------
1961-06-29 15.5 22.6 6.3 2.8 75.8- 0.7 0.7---- 0.0------------
1961-06-28 13.9 23.2 11.6 12.5 67.3- 4.3 3.0---- 0.0------------
1961-06-27 24.1 30.5 14.5 11.0 67.8- 5.7 1.7---- 6.2------------
1961-06-26 21.1 27.5 14.3 11.4 80.5- 3.3 0.3---- 0.0------------
1961-06-25 21.8 30.0 10.5 7.0 66.3- 0.0 1.0---- 0.0------------
1961-06-24 18.2 25.5 9.3 6.0 74.3- 1.3 1.0---- 0.0------------
1961-06-23 17.3 24.2 14.2 11.8 79.8- 3.0 2.3---- 0.0------------
1961-06-22 20.0 27.0 6.9 3.2 71.0- 3.0 1.3---- 5.9------------
1961-06-21 17.0 24.4 3.8 -0.1 63.8- 3.0 0.7---- 0.0------------
1961-06-20 13.5 19.6 6.6 1.6 70.8- 1.0 1.7---- 0.0------------
1961-06-19 16.6 21.8 12.3 9.6 78.8- 4.7 0.7---- 0.0------------
1961-06-18 18.9 27.0 7.1 3.8 72.0- 0.0 0.7---- 0.0------------
1961-06-17 15.2 22.9 5.7 2.2 72.3- 0.3 1.0---- 0.0------------
1961-06-16 14.1 20.1 5.8 1.1 74.3- 1.3 1.3---- 0.0------------
265.6 ms

 

Źródłem pochodzenia danych jest Instytut Meteorologii i Gospodarki Wodnej – Państwowy Instytut Badawczy. Dane Instytutu Meteorologii i Gospodarki Wodnej – Państwowego Instytutu Badawczego zostały przetworzone.

Dane źródłowe można odnaleźć na stronie https://dane.imgw.pl